Time;durP1;ratioP1;P1;durP2;ratioP2;P2;SDS_P1;SDS_P2;PMS_P1;PMS_P2;Temp;Humidity;BMP_temperature;BMP_pressure;BME280_temperature;BME280_humidity;BME280_pressure;Samples;Min_cycle;Max_cycle;Signal;HPM_P1;HPM_P2
2021/08/13 00:01:33;;;;;;;59.70;9.27;;;27.50;69.10;;;;;;5061190;28;20695;-59
2021/08/13 00:03:59;;;;;;;43.25;8.23;;;27.40;69.10;;;;;;5062181;28;20123;-59
2021/08/13 00:06:24;;;;;;;51.17;8.63;;;27.40;69.20;;;;;;5040021;28;20032;-59
2021/08/13 00:08:50;;;;;;;51.13;8.32;;;27.40;69.30;;;;;;5062557;28;20361;-59
2021/08/13 00:11:15;;;;;;;67.53;9.15;;;27.40;69.40;;;;;;5043783;28;20116;-59
2021/08/13 00:13:41;;;;;;;71.10;10.02;;;27.40;69.50;;;;;;5039975;28;20124;-59
2021/08/13 00:16:06;;;;;;;50.22;7.68;;;27.30;69.60;;;;;;5040939;28;20044;-59
2021/08/13 00:18:32;;;;;;;51.67;8.20;;;27.30;69.90;;;;;;5043192;28;20116;-59
2021/08/13 00:20:57;;;;;;;43.22;8.23;;;27.20;69.90;;;;;;5041099;28;20028;-59
2021/08/13 00:23:23;;;;;;;55.10;8.82;;;27.20;69.80;;;;;;5059158;28;20044;-59
2021/08/13 00:25:49;;;;;;;52.03;9.18;;;27.20;69.70;;;;;;5042868;28;20523;-59
2021/08/13 00:28:15;;;;;;;41.83;7.70;;;27.20;69.80;;;;;;5067772;28;20066;-59
2021/08/13 00:30:40;;;;;;;46.03;8.07;;;27.20;69.80;;;;;;5063197;28;20400;-59
2021/08/13 00:33:06;;;;;;;49.75;8.98;;;27.20;69.80;;;;;;5047034;28;20041;-60
2021/08/13 00:35:31;;;;;;;51.47;8.38;;;27.20;70.00;;;;;;5042995;28;20120;-59
2021/08/13 00:37:57;;;;;;;48.33;8.45;;;27.20;70.00;;;;;;5041647;28;20547;-59
2021/08/13 00:40:23;;;;;;;40.60;7.32;;;27.00;69.70;;;;;;5065346;28;20025;-59
2021/08/13 00:42:48;;;;;;;44.33;8.43;;;27.10;69.90;;;;;;5061468;28;20374;-59
2021/08/13 00:45:14;;;;;;;49.00;8.75;;;27.10;69.90;;;;;;5043999;28;20060;-59
2021/08/13 00:47:39;;;;;;;28.70;6.63;;;27.10;70.00;;;;;;5059584;28;20074;-59
2021/08/13 00:50:05;;;;;;;43.85;8.18;;;27.00;69.90;;;;;;5059877;28;20024;-59
2021/08/13 00:52:31;;;;;;;39.50;7.50;;;27.10;69.90;;;;;;5028057;28;20041;-58
2021/08/13 00:54:56;;;;;;;31.85;6.45;;;27.00;69.90;;;;;;5033583;28;20017;-59
2021/08/13 00:57:22;;;;;;;44.60;7.43;;;27.00;69.90;;;;;;5056653;28;20113;-59
2021/08/13 00:59:47;;;;;;;34.50;7.18;;;27.00;69.90;;;;;;5043539;28;20031;-59
2021/08/13 01:02:13;;;;;;;29.50;6.43;;;27.00;70.00;;;;;;5041794;28;20579;-59
2021/08/13 01:04:38;;;;;;;29.70;5.80;;;26.90;69.90;;;;;;5046242;28;20052;-62
2021/08/13 01:07:07;;;;;;;33.40;6.60;;;26.90;70.60;;;;;;5024442;28;20116;-61
2021/08/13 01:09:34;;;;;;;29.13;6.68;;;26.90;70.00;;;;;;5059205;28;20044;-61
2021/08/13 01:12:02;;;;;;;26.10;6.78;;;26.90;70.00;;;;;;5025133;28;20055;-61
2021/08/13 01:14:30;;;;;;;21.65;6.18;;;26.90;70.00;;;;;;5043374;28;20147;-62
2021/08/13 01:16:55;;;;;;;27.85;6.75;;;26.80;69.90;;;;;;5040066;28;20028;-62
2021/08/13 01:19:37;;;;;;;26.35;5.97;;;26.80;69.80;;;;;;5041368;28;20196;-62
2021/08/13 01:22:10;;;;;;;28.25;6.20;;;26.80;69.90;;;;;;5025508;28;20120;-62
2021/08/13 01:24:38;;;;;;;27.15;6.53;;;26.80;69.90;;;;;;5024089;28;20052;-61
2021/08/13 01:27:12;;;;;;;25.90;5.88;;;26.80;70.00;;;;;;5026604;28;20036;-62
2021/08/13 01:29:51;;;;;;;18.55;5.95;;;26.80;69.90;;;;;;5025134;28;20108;-59
2021/08/13 01:32:27;;;;;;;30.15;6.43;;;26.80;69.90;;;;;;5041491;28;20048;-59
2021/08/13 01:34:57;;;;;;;21.35;5.43;;;26.70;69.80;;;;;;5039386;28;20100;-59
2021/08/13 01:37:23;;;;;;;20.52;5.93;;;26.70;69.90;;;;;;5012152;28;20024;-62
2021/08/13 01:39:48;;;;;;;17.02;5.22;;;26.70;70.00;;;;;;5047140;28;20054;-60
2021/08/13 01:42:14;;;;;;;19.40;5.57;;;26.70;70.00;;;;;;5030558;28;20112;-60
2021/08/13 01:44:40;;;;;;;18.77;5.22;;;26.60;70.10;;;;;;5027295;28;20476;-59
2021/08/13 01:47:05;;;;;;;22.00;6.13;;;26.60;69.90;;;;;;5023411;28;20064;-60
2021/08/13 01:49:32;;;;;;;14.65;5.60;;;26.60;70.10;;;;;;5057958;28;20464;-59
2021/08/13 01:51:58;;;;;;;13.80;5.45;;;26.50;70.00;;;;;;5048641;28;20124;-60
2021/08/13 01:54:24;;;;;;;15.63;5.95;;;26.50;70.00;;;;;;5062900;28;20032;-60
2021/08/13 01:56:50;;;;;;;21.13;5.50;;;26.50;70.10;;;;;;5043618;28;20043;-59
2021/08/13 01:59:15;;;;;;;18.80;5.75;;;26.50;70.00;;;;;;5027479;28;20028;-59
2021/08/13 02:01:41;;;;;;;17.15;5.68;;;26.50;70.00;;;;;;5028108;28;20075;-60
2021/08/13 02:04:07;;;;;;;19.38;6.30;;;26.50;70.00;;;;;;5062258;28;20032;-59
2021/08/13 02:06:33;;;;;;;19.05;6.32;;;26.50;70.00;;;;;;5026417;28;20028;-59
2021/08/13 02:08:59;;;;;;;12.63;5.55;;;26.50;70.10;;;;;;5045958;28;20095;-60
2021/08/13 02:11:25;;;;;;;16.23;6.32;;;26.40;70.10;;;;;;5038927;28;20514;-59
2021/08/13 02:13:50;;;;;;;17.80;5.97;;;26.40;70.10;;;;;;5026347;28;20032;-60
2021/08/13 02:16:18;;;;;;;12.90;5.72;;;26.40;70.20;;;;;;5050792;28;20668;-59
2021/08/13 02:18:45;;;;;;;9.05;5.60;;;26.30;70.10;;;;;;5029480;28;20021;-60
2021/08/13 02:21:12;;;;;;;13.13;5.63;;;26.30;70.20;;;;;;5027845;28;20028;-59
2021/08/13 02:23:38;;;;;;;10.00;5.32;;;26.30;70.40;;;;;;5027573;28;20021;-60
2021/08/13 02:26:03;;;;;;;10.75;5.78;;;26.30;70.40;;;;;;5025744;28;20315;-59
2021/08/13 02:28:29;;;;;;;12.73;5.32;;;26.30;70.50;;;;;;5031020;28;20628;-59
2021/08/13 02:30:55;;;;;;;12.25;5.30;;;26.20;70.50;;;;;;5064597;28;20047;-60
2021/08/13 02:33:21;;;;;;;11.00;5.38;;;26.20;70.50;;;;;;5061600;28;20444;-59
2021/08/13 02:35:46;;;;;;;10.20;4.95;;;26.20;70.60;;;;;;5052531;28;20472;-59
2021/08/13 02:38:24;;;;;;;13.77;5.15;;;26.10;70.50;;;;;;5045442;28;20082;-60
2021/08/13 02:40:52;;;;;;;12.57;4.95;;;26.20;70.70;;;;;;5045653;28;20154;-60
2021/08/13 02:43:25;;;;;;;13.73;4.95;;;26.10;70.60;;;;;;5032724;28;20439;-60
2021/08/13 02:45:51;;;;;;;10.90;4.60;;;26.10;70.70;;;;;;5026143;28;20174;-59
2021/08/13 02:48:17;;;;;;;9.98;4.80;;;26.10;70.80;;;;;;5027628;28;20151;-59
2021/08/13 02:50:42;;;;;;;12.15;5.28;;;26.00;70.80;;;;;;5020916;28;20100;-59
2021/08/13 02:53:22;;;;;;;12.77;4.97;;;26.00;70.90;;;;;;5021902;28;20029;-60
2021/08/13 02:55:53;;;;;;;8.13;4.63;;;26.00;70.90;;;;;;5057462;28;20056;-60
2021/08/13 02:58:19;;;;;;;8.85;4.72;;;26.00;71.00;;;;;;5041483;28;20020;-59
2021/08/13 03:00:45;;;;;;;9.07;4.28;;;25.90;71.00;;;;;;5037904;28;20362;-60
2021/08/13 03:03:11;;;;;;;8.70;4.43;;;25.90;71.20;;;;;;5026837;28;20277;-60
2021/08/13 03:05:39;;;;;;;13.68;4.85;;;25.90;71.20;;;;;;5057348;28;20020;-60
2021/08/13 03:08:05;;;;;;;10.90;4.60;;;25.90;71.30;;;;;;5029574;28;20032;-59
2021/08/13 03:10:31;;;;;;;12.45;5.40;;;25.90;71.30;;;;;;5041108;28;20055;-59
2021/08/13 03:12:56;;;;;;;11.45;4.78;;;25.90;71.40;;;;;;5027604;28;20033;-59
2021/08/13 03:15:22;;;;;;;7.85;4.28;;;25.80;71.50;;;;;;5039151;28;20527;-60
2021/08/13 03:17:47;;;;;;;7.78;4.28;;;25.80;71.50;;;;;;5039546;28;20711;-59
2021/08/13 03:20:13;;;;;;;13.27;4.60;;;25.80;71.50;;;;;;5022995;28;20029;-59
2021/08/13 03:22:38;;;;;;;11.52;4.70;;;25.80;71.50;;;;;;5040539;28;20484;-59
2021/08/13 03:25:05;;;;;;;7.93;4.88;;;25.80;71.60;;;;;;5018905;28;20028;-59
2021/08/13 03:27:30;;;;;;;8.23;4.65;;;25.70;71.50;;;;;;5044311;28;20119;-60
2021/08/13 03:29:56;;;;;;;7.22;4.50;;;25.70;71.60;;;;;;5047574;28;20123;-60
2021/08/13 03:32:21;;;;;;;9.15;5.22;;;25.70;71.60;;;;;;5057950;28;20115;-59
2021/08/13 03:34:47;;;;;;;5.75;4.70;;;25.70;71.60;;;;;;5025734;28;20430;-60
2021/08/13 03:37:12;;;;;;;9.40;5.07;;;25.70;71.70;;;;;;5028991;28;20024;-59
2021/08/13 03:39:38;;;;;;;7.45;4.55;;;25.60;71.70;;;;;;5044311;28;20115;-60
2021/08/13 03:42:03;;;;;;;9.50;5.00;;;25.60;71.70;;;;;;5043508;28;20056;-59
2021/08/13 03:44:29;;;;;;;8.13;4.45;;;25.60;71.80;;;;;;5057049;28;20128;-59
2021/08/13 03:46:54;;;;;;;10.20;5.18;;;25.60;71.90;;;;;;5043345;28;20098;-59
2021/08/13 03:49:20;;;;;;;8.60;5.00;;;25.60;72.00;;;;;;5042199;28;20123;-60
2021/08/13 03:51:45;;;;;;;12.35;4.47;;;25.50;72.10;;;;;;5047970;28;20081;-59
2021/08/13 03:54:11;;;;;;;10.48;4.35;;;25.50;72.10;;;;;;5044027;28;20040;-60
2021/08/13 03:56:37;;;;;;;9.02;5.00;;;25.50;72.10;;;;;;5024454;28;20516;-59
2021/08/13 03:59:02;;;;;;;8.18;4.85;;;25.40;72.20;;;;;;5046881;28;20029;-60
2021/08/13 04:01:28;;;;;;;8.90;4.57;;;25.40;72.30;;;;;;5039367;28;20032;-60
2021/08/13 04:03:53;;;;;;;7.00;4.18;;;25.30;72.30;;;;;;5063908;28;20028;-59
2021/08/13 04:06:19;;;;;;;6.05;4.20;;;25.30;72.50;;;;;;5063343;28;20033;-59
2021/08/13 04:08:44;;;;;;;8.45;4.10;;;25.30;72.60;;;;;;5046993;28;20506;-59
2021/08/13 04:11:10;;;;;;;6.32;4.00;;;25.20;72.60;;;;;;5043006;28;20489;-60
2021/08/13 04:13:35;;;;;;;7.78;5.00;;;25.20;72.70;;;;;;5061759;28;20024;-59
2021/08/13 04:16:01;;;;;;;9.13;4.65;;;25.30;72.90;;;;;;5031220;28;20099;-59
2021/08/13 04:18:26;;;;;;;5.95;4.10;;;25.20;73.00;;;;;;5046110;28;20406;-59
2021/08/13 04:20:52;;;;;;;8.27;4.13;;;25.20;73.10;;;;;;5024119;28;20411;-59
2021/08/13 04:23:17;;;;;;;10.75;4.40;;;25.20;73.20;;;;;;5058773;28;20127;-59
2021/08/13 04:25:43;;;;;;;9.80;4.22;;;25.20;73.20;;;;;;5059234;28;20368;-59
2021/08/13 04:28:08;;;;;;;5.97;3.80;;;25.20;73.30;;;;;;5059693;28;20290;-60
2021/08/13 04:30:34;;;;;;;7.30;3.40;;;25.20;73.40;;;;;;5062191;28;20020;-59
2021/08/13 04:32:59;;;;;;;9.80;3.95;;;25.10;73.30;;;;;;5022188;28;20040;-59
2021/08/13 04:35:25;;;;;;;7.95;3.80;;;25.10;73.40;;;;;;5063477;28;20166;-59
2021/08/13 04:37:51;;;;;;;6.03;3.80;;;25.10;73.50;;;;;;5059051;28;20037;-59
2021/08/13 04:40:16;;;;;;;7.18;3.50;;;25.10;73.50;;;;;;5061202;28;20144;-59
2021/08/13 04:42:42;;;;;;;8.82;3.95;;;25.10;73.60;;;;;;5033016;28;20071;-59
2021/08/13 04:45:08;;;;;;;8.48;3.90;;;25.10;73.70;;;;;;5027721;28;20024;-59
2021/08/13 04:47:33;;;;;;;8.90;4.22;;;25.00;73.80;;;;;;5058496;28;20490;-59
2021/08/13 04:49:59;;;;;;;6.88;3.85;;;25.00;73.90;;;;;;5060685;28;20163;-59
2021/08/13 04:52:24;;;;;;;7.20;3.85;;;25.00;73.90;;;;;;5046853;28;20043;-59
2021/08/13 04:54:50;;;;;;;5.22;3.60;;;24.90;74.00;;;;;;5056735;28;20040;-59
2021/08/13 04:57:15;;;;;;;7.28;3.88;;;24.90;74.10;;;;;;5044807;28;20032;-59
2021/08/13 04:59:41;;;;;;;8.15;3.75;;;24.90;74.10;;;;;;5042954;28;20098;-60
2021/08/13 05:02:07;;;;;;;10.45;3.70;;;24.90;74.20;;;;;;5043491;28;20472;-59
2021/08/13 05:04:32;;;;;;;5.32;3.15;;;24.90;74.30;;;;;;5045050;28;20032;-60
2021/08/13 05:06:58;;;;;;;6.25;3.20;;;24.90;74.30;;;;;;5060098;28;20264;-59
2021/08/13 05:09:23;;;;;;;6.85;3.83;;;24.90;74.30;;;;;;5059367;28;20024;-59
2021/08/13 05:11:49;;;;;;;5.53;3.95;;;24.90;74.40;;;;;;5044315;28;20426;-60
2021/08/13 05:14:14;;;;;;;6.85;3.35;;;24.90;74.40;;;;;;5048912;28;20427;-59
2021/08/13 05:16:40;;;;;;;8.18;3.25;;;24.80;74.30;;;;;;5053660;28;20104;-59
2021/08/13 05:19:05;;;;;;;4.38;3.22;;;24.80;74.40;;;;;;5029047;28;20029;-59
2021/08/13 05:21:37;;;;;;;5.68;3.05;;;24.80;74.40;;;;;;5065422;28;20029;-60
2021/08/13 05:24:03;;;;;;;9.23;3.20;;;24.80;74.40;;;;;;5029301;28;20108;-59
2021/08/13 05:26:28;;;;;;;6.35;3.55;;;24.80;74.40;;;;;;5061789;28;20123;-60
2021/08/13 05:28:54;;;;;;;5.70;3.08;;;24.80;74.40;;;;;;5066286;28;20113;-59
2021/08/13 05:31:19;;;;;;;7.53;3.20;;;24.80;74.40;;;;;;5062242;28;20510;-58
2021/08/13 05:33:45;;;;;;;7.53;3.58;;;24.80;74.50;;;;;;5062213;28;20024;-59
2021/08/13 05:36:11;;;;;;;7.18;3.45;;;24.80;74.50;;;;;;5063414;28;20033;-59
2021/08/13 05:38:36;;;;;;;7.28;3.17;;;24.70;74.50;;;;;;5063330;28;20042;-59
2021/08/13 05:41:02;;;;;;;5.40;3.03;;;24.80;74.60;;;;;;5062972;28;20524;-59
2021/08/13 05:43:27;;;;;;;6.00;2.92;;;24.70;74.60;;;;;;5063655;28;20024;-59
2021/08/13 05:45:53;;;;;;;9.25;4.15;;;24.70;74.60;;;;;;5062798;28;20306;-59
2021/08/13 05:48:18;;;;;;;6.50;3.15;;;24.70;74.70;;;;;;5038954;28;20033;-60
2021/08/13 05:50:44;;;;;;;6.10;3.00;;;24.70;74.70;;;;;;5063172;28;20038;-60
2021/08/13 05:53:09;;;;;;;6.22;2.90;;;24.60;74.60;;;;;;5040702;28;20050;-59
2021/08/13 05:55:35;;;;;;;4.03;3.25;;;24.70;74.70;;;;;;5042560;28;20415;-59
2021/08/13 05:58:00;;;;;;;5.63;3.28;;;24.70;74.70;;;;;;5061925;28;20573;-59
2021/08/13 06:00:26;;;;;;;5.78;3.53;;;24.70;74.70;;;;;;5042858;28;20107;-59
2021/08/13 06:02:56;;;;;;;9.48;3.17;;;24.70;74.60;;;;;;5045036;28;20040;-59
2021/08/13 06:05:21;;;;;;;12.38;3.45;;;24.70;74.60;;;;;;5044922;28;20084;-59
2021/08/13 06:07:47;;;;;;;9.68;2.92;;;24.60;74.70;;;;;;5018134;28;20458;-59
2021/08/13 06:10:12;;;;;;;10.95;3.45;;;24.60;75.00;;;;;;5038584;28;20079;-60
2021/08/13 06:12:38;;;;;;;7.55;3.25;;;24.70;75.00;;;;;;5011259;28;20035;-59
2021/08/13 06:15:04;;;;;;;9.32;3.50;;;24.60;74.80;;;;;;5037356;28;20048;-59
2021/08/13 06:17:30;;;;;;;6.07;3.72;;;24.70;74.90;;;;;;5053797;28;20032;-59
2021/08/13 06:19:55;;;;;;;6.35;3.08;;;24.60;74.90;;;;;;5052961;28;20051;-59
2021/08/13 06:22:21;;;;;;;8.00;3.03;;;24.60;74.90;;;;;;5036307;28;20125;-59
2021/08/13 06:24:46;;;;;;;14.05;3.60;;;24.60;74.90;;;;;;5043182;28;20032;-59
2021/08/13 06:27:12;;;;;;;58.45;6.03;;;24.60;75.10;;;;;;5041936;28;20040;-59
2021/08/13 06:29:38;;;;;;;6.95;3.58;;;24.60;75.30;;;;;;5027474;28;20021;-59
2021/08/13 06:32:03;;;;;;;7.13;2.90;;;24.60;75.20;;;;;;5042715;28;20029;-60
2021/08/13 06:34:29;;;;;;;12.90;4.10;;;24.60;75.20;;;;;;5060748;28;20443;-58
2021/08/13 06:36:54;;;;;;;25.98;4.55;;;24.70;75.30;;;;;;5044581;28;20029;-59
2021/08/13 06:39:20;;;;;;;14.68;4.50;;;24.60;75.20;;;;;;5041830;28;20161;-59
2021/08/13 06:41:46;;;;;;;15.43;4.30;;;24.70;75.40;;;;;;5041288;28;20116;-59
2021/08/13 06:44:14;;;;;;;13.90;3.90;;;24.70;75.80;;;;;;5061469;28;20147;-59
2021/08/13 06:46:40;;;;;;;28.83;4.80;;;24.60;75.60;;;;;;5037957;28;20040;-59
2021/08/13 06:49:05;;;;;;;21.50;4.68;;;24.70;75.60;;;;;;5036667;28;20090;-59
2021/08/13 06:51:31;;;;;;;24.05;4.63;;;24.70;75.90;;;;;;5057449;28;20684;-59
2021/08/13 06:53:56;;;;;;;20.65;4.10;;;24.70;75.70;;;;;;5037645;28;20040;-61
2021/08/13 06:56:22;;;;;;;22.27;4.28;;;24.70;76.00;;;;;;5051186;28;20053;-61
2021/08/13 06:58:47;;;;;;;22.52;5.13;;;24.70;76.00;;;;;;5051348;28;20072;-61
2021/08/13 07:01:13;;;;;;;30.38;5.32;;;24.70;75.90;;;;;;5037908;28;20029;-60
2021/08/13 07:03:38;;;;;;;37.67;6.07;;;24.70;76.00;;;;;;5063034;28;20107;-59
2021/08/13 07:06:04;;;;;;;47.38;5.75;;;24.70;76.70;;;;;;5039316;28;20021;-59
2021/08/13 07:08:29;;;;;;;31.60;6.43;;;24.70;77.70;;;;;;5059846;28;20036;-60
2021/08/13 07:10:55;;;;;;;38.78;6.18;;;24.70;77.80;;;;;;5038494;28;20810;-59
2021/08/13 07:13:20;;;;;;;58.15;7.10;;;24.70;78.00;;;;;;5056684;28;20024;-59
2021/08/13 07:15:46;;;;;;;27.63;6.10;;;24.70;78.20;;;;;;5055718;28;20521;-60
2021/08/13 07:18:11;;;;;;;32.00;5.13;;;24.60;78.40;;;;;;5057568;28;20072;-59
2021/08/13 07:20:37;;;;;;;18.77;4.80;;;24.60;78.60;;;;;;5040957;28;20034;-59
2021/08/13 07:23:02;;;;;;;13.65;4.35;;;24.70;78.70;;;;;;5056562;28;20051;-59
2021/08/13 07:25:28;;;;;;;31.42;4.65;;;24.60;78.60;;;;;;5037838;28;20103;-59
2021/08/13 07:27:54;;;;;;;20.08;4.85;;;24.60;78.60;;;;;;5047238;28;20057;-59
2021/08/13 07:30:20;;;;;;;26.80;5.07;;;24.60;78.60;;;;;;5062397;28;20017;-59
2021/08/13 07:32:46;;;;;;;23.88;5.57;;;24.60;78.50;;;;;;5045097;28;20115;-59
2021/08/13 07:35:12;;;;;;;18.17;4.97;;;24.70;78.60;;;;;;5036967;28;20088;-59
2021/08/13 07:37:37;;;;;;;28.77;5.88;;;24.60;78.70;;;;;;5038885;28;20085;-61
2021/08/13 07:40:03;;;;;;;44.92;7.15;;;24.70;78.60;;;;;;5057072;28;20036;-59
2021/08/13 07:42:29;;;;;;;37.10;6.25;;;24.70;78.30;;;;;;5037605;28;20438;-59
2021/08/13 07:44:55;;;;;;;31.33;6.55;;;24.70;78.30;;;;;;5058937;28;20020;-60
2021/08/13 07:47:20;;;;;;;54.08;7.80;;;24.70;78.60;;;;;;5041479;28;20502;-59
2021/08/13 07:49:46;;;;;;;43.75;5.95;;;24.70;78.70;;;;;;5056165;28;20045;-59
2021/08/13 07:52:11;;;;;;;44.72;6.47;;;24.70;78.70;;;;;;5041564;28;20128;-59
2021/08/13 07:54:37;;;;;;;46.65;7.10;;;24.70;78.50;;;;;;5043097;28;20136;-59
2021/08/13 07:57:03;;;;;;;42.22;7.22;;;24.70;78.20;;;;;;5040395;28;20020;-59
2021/08/13 07:59:28;;;;;;;56.95;6.60;;;24.80;78.00;;;;;;5065234;28;20356;-60
2021/08/13 08:01:54;;;;;;;39.83;6.78;;;24.80;77.80;;;;;;5025618;28;20044;-59
2021/08/13 08:04:19;;;;;;;36.67;5.72;;;24.80;77.30;;;;;;5052839;28;20064;-59
2021/08/13 08:06:45;;;;;;;46.83;6.40;;;24.80;77.00;;;;;;5025818;28;20498;-59
2021/08/13 08:09:11;;;;;;;35.20;6.43;;;24.80;77.00;;;;;;5061156;28;20043;-59
2021/08/13 08:11:36;;;;;;;50.90;7.20;;;24.80;76.80;;;;;;5061706;28;20063;-59
2021/08/13 08:14:02;;;;;;;32.08;5.53;;;24.90;76.70;;;;;;5037346;28;20048;-59
2021/08/13 08:16:27;;;;;;;43.97;6.90;;;24.90;76.50;;;;;;5039229;28;20123;-59
2021/08/13 08:18:53;;;;;;;35.13;6.00;;;24.90;76.30;;;;;;5056512;28;20040;-60
2021/08/13 08:21:19;;;;;;;27.48;5.75;;;24.90;76.00;;;;;;5038334;28;20074;-59
2021/08/13 08:23:44;;;;;;;41.22;6.22;;;25.00;76.10;;;;;;5062078;28;20124;-59
2021/08/13 08:26:10;;;;;;;37.55;5.97;;;25.00;76.00;;;;;;5039663;28;20184;-60
2021/08/13 08:28:41;;;;;;;35.22;5.65;;;25.10;76.00;;;;;;5041055;28;20516;-59
2021/08/13 08:31:07;;;;;;;34.50;5.07;;;25.10;75.60;;;;;;5052727;28;20056;-59
2021/08/13 08:33:32;;;;;;;34.67;5.72;;;25.10;75.20;;;;;;5025331;28;20140;-59
2021/08/13 08:35:58;;;;;;;38.00;5.30;;;25.10;75.20;;;;;;5057541;28;20036;-59
2021/08/13 08:38:23;;;;;;;85.32;9.68;;;25.20;74.90;;;;;;5040551;28;20059;-60
2021/08/13 08:40:49;;;;;;;68.70;8.18;;;25.20;74.80;;;;;;5019683;28;20056;-59
2021/08/13 08:43:15;;;;;;;56.22;6.90;;;25.20;74.60;;;;;;5060582;28;20116;-59
2021/08/13 08:45:40;;;;;;;76.32;8.75;;;25.20;74.30;;;;;;5022838;28;20245;-60
2021/08/13 08:48:07;;;;;;;42.65;6.00;;;25.30;74.20;;;;;;5051128;28;20503;-59
2021/08/13 08:50:35;;;;;;;43.13;5.88;;;25.30;73.80;;;;;;5055604;28;20163;-60
2021/08/13 08:53:02;;;;;;;36.15;5.20;;;25.40;73.60;;;;;;5059121;28;20388;-60
2021/08/13 08:55:28;;;;;;;33.97;6.65;;;25.40;73.40;;;;;;5040708;28;20013;-59
2021/08/13 08:57:54;;;;;;;46.00;5.03;;;25.40;73.30;;;;;;5041091;28;20041;-59
2021/08/13 09:00:19;;;;;;;34.38;4.97;;;25.50;73.40;;;;;;5039525;28;20025;-61
2021/08/13 09:02:45;;;;;;;39.50;5.20;;;25.50;73.10;;;;;;5016773;28;20045;-60
2021/08/13 09:05:11;;;;;;;36.67;5.50;;;25.50;73.20;;;;;;5043482;28;20025;-60
2021/08/13 09:07:37;;;;;;;39.30;6.85;;;25.60;73.10;;;;;;5038081;28;20025;-61
2021/08/13 09:10:03;;;;;;;37.42;5.03;;;25.60;73.10;;;;;;5059816;28;20117;-60
2021/08/13 09:12:29;;;;;;;36.58;5.90;;;25.60;73.00;;;;;;5033638;28;20428;-60
2021/08/13 09:14:54;;;;;;;43.40;5.53;;;25.60;72.90;;;;;;5032644;28;20044;-60
2021/08/13 09:17:27;;;;;;;25.42;5.57;;;25.70;73.00;;;;;;5016129;28;20123;-60
2021/08/13 09:19:53;;;;;;;37.38;6.15;;;25.70;72.90;;;;;;5057678;28;20060;-60
2021/08/13 09:22:20;;;;;;;37.00;6.05;;;25.80;72.90;;;;;;5038092;28;20520;-60
2021/08/13 09:24:48;;;;;;;74.47;7.95;;;25.80;72.70;;;;;;5038910;28;20033;-60
2021/08/13 09:27:32;;;;;;;52.47;7.05;;;25.90;73.10;;;;;;5058879;28;20092;-60
2021/08/13 09:30:24;;;;;;;40.55;5.80;;;25.90;72.80;;;;;;5047307;28;20032;-60
2021/08/13 09:33:00;;;;;;;52.50;6.53;;;25.90;72.60;;;;;;5033139;28;20200;-60
2021/08/13 09:35:36;;;;;;;49.28;7.47;;;25.90;72.50;;;;;;5034283;28;20040;-62
2021/08/13 09:38:03;;;;;;;33.20;5.57;;;26.00;72.20;;;;;;5055417;28;20025;-62
2021/08/13 09:40:39;;;;;;;35.55;5.72;;;26.00;72.30;;;;;;5040476;28;20023;-60
2021/08/13 09:43:05;;;;;;;56.20;8.23;;;26.00;72.40;;;;;;5037684;28;20039;-60
2021/08/13 09:45:30;;;;;;;46.95;7.38;;;26.00;72.30;;;;;;5019658;28;20408;-60
2021/08/13 09:47:56;;;;;;;57.05;6.88;;;26.10;72.70;;;;;;5054504;28;20106;-60
2021/08/13 09:50:38;;;;;;;37.58;5.78;;;26.10;72.70;;;;;;5038019;28;20021;-60
2021/08/13 09:53:14;;;;;;;45.72;6.30;;;26.10;72.70;;;;;;5037914;28;20072;-60
2021/08/13 09:55:43;;;;;;;;;;;26.10;72.40;;;;;;5039735;28;20552;-61
2021/08/13 09:58:10;;;;;;;58.40;5.82;;;26.10;72.30;;;;;;5038996;28;20340;-60
2021/08/13 10:00:46;;;;;;;33.33;5.93;;;26.20;72.50;;;;;;5018794;28;20029;-60
2021/08/13 10:03:12;;;;;;;42.38;6.05;;;26.20;72.40;;;;;;5023820;28;20044;-60
2021/08/13 10:05:38;;;;;;;44.95;7.10;;;26.20;72.20;;;;;;5043517;28;20089;-60
2021/08/13 10:08:04;;;;;;;78.35;8.82;;;26.30;72.20;;;;;;5070441;28;20123;-60
2021/08/13 10:10:40;;;;;;;50.03;7.20;;;26.30;72.20;;;;;;5023493;28;20112;-60
2021/08/13 10:13:07;;;;;;;46.85;6.35;;;26.40;71.70;;;;;;5036276;28;20123;-60
2021/08/13 10:15:43;;;;;;;55.85;7.57;;;26.40;71.50;;;;;;5042814;28;20127;-60
2021/08/13 10:18:10;;;;;;;38.25;5.78;;;26.40;71.40;;;;;;5042467;28;20048;-60
2021/08/13 10:20:47;;;;;;;74.18;8.82;;;26.50;71.20;;;;;;5056523;28;20134;-60
2021/08/13 10:23:13;;;;;;;82.30;8.70;;;26.50;71.60;;;;;;5040980;28;20488;-60
2021/08/13 10:25:38;;;;;;;58.88;7.35;;;26.60;71.90;;;;;;5042187;28;20070;-60
2021/08/13 10:28:04;;;;;;;42.83;6.95;;;26.60;71.80;;;;;;5055493;28;20698;-60
2021/08/13 10:30:30;;;;;;;63.78;8.13;;;26.70;71.50;;;;;;5049572;28;20031;-60
2021/08/13 10:32:58;;;;;;;53.45;6.80;;;26.70;71.40;;;;;;5040048;28;20511;-60
2021/08/13 10:35:28;;;;;;;43.90;7.13;;;26.80;71.30;;;;;;5060285;28;20139;-60
2021/08/13 10:37:53;;;;;;;45.35;6.07;;;26.80;71.80;;;;;;5025942;28;20064;-64
2021/08/13 10:40:19;;;;;;;49.00;6.50;;;26.80;71.10;;;;;;5029405;28;20400;-60
2021/08/13 10:42:45;;;;;;;55.80;7.65;;;26.80;71.10;;;;;;5008505;28;20373;-60
2021/08/13 10:45:20;;;;;;;40.42;6.60;;;26.90;71.30;;;;;;5023313;28;20383;-60
2021/08/13 10:47:54;;;;;;;56.25;7.32;;;26.80;71.10;;;;;;5019752;28;20021;-60
2021/08/13 10:50:20;;;;;;;55.28;7.40;;;26.90;71.40;;;;;;5022787;28;20033;-60
2021/08/13 10:52:45;;;;;;;37.28;6.60;;;26.90;71.40;;;;;;5040013;28;20035;-60
2021/08/13 10:55:52;;;;;;;30.73;5.72;;;27.00;71.20;;;;;;5043286;28;20029;-60
2021/08/13 10:58:40;;;;;;;33.15;5.63;;;27.00;70.90;;;;;;5069315;28;20020;-60
2021/08/13 11:01:20;;;;;;;35.03;6.38;;;27.10;70.90;;;;;;5055387;28;20030;-61
2021/08/13 11:03:55;;;;;;;38.55;5.65;;;27.00;70.70;;;;;;5035660;28;20036;-61
2021/08/13 11:06:35;;;;;;;45.67;6.63;;;27.10;70.80;;;;;;5063617;28;20075;-61
2021/08/13 11:09:02;;;;;;;89.25;10.52;;;27.20;71.00;;;;;;5039236;28;20028;-60
2021/08/13 11:11:32;;;;;;;52.67;7.47;;;27.20;70.70;;;;;;5011940;28;20073;-60
2021/08/13 11:13:57;;;;;;;63.25;7.68;;;27.30;70.80;;;;;;5028164;28;20045;-61
2021/08/13 11:16:29;;;;;;;46.17;6.18;;;27.40;70.50;;;;;;5025393;28;20401;-61
2021/08/13 11:18:59;;;;;;;44.28;5.90;;;27.40;70.40;;;;;;5055194;28;20044;-61
2021/08/13 11:21:46;;;;;;;34.38;5.18;;;27.50;70.40;;;;;;5026002;28;20040;-60
2021/08/13 11:24:12;;;;;;;34.45;6.13;;;27.50;70.00;;;;;;5055616;28;20036;-61
2021/08/13 11:26:49;;;;;;;32.45;5.68;;;27.60;69.80;;;;;;5027727;28;20147;-61
2021/08/13 11:29:36;;;;;;;41.45;5.63;;;27.60;69.30;;;;;;5062828;28;20056;-61
2021/08/13 11:32:25;;;;;;;21.70;4.70;;;27.70;69.10;;;;;;5051995;28;20098;-61
2021/08/13 11:34:55;;;;;;;20.52;4.55;;;27.70;68.90;;;;;;5023078;28;20036;-61
2021/08/13 11:37:41;;;;;;;23.95;4.93;;;27.80;68.80;;;;;;5041029;28;20120;-61
2021/08/13 11:40:12;;;;;;;10.75;3.58;;;27.90;68.70;;;;;;5059775;28;20120;-59
2021/08/13 11:43:01;;;;;;;20.77;4.47;;;28.00;68.70;;;;;;5057278;28;20035;-59
2021/08/13 11:45:33;;;;;;;29.13;4.95;;;28.00;68.70;;;;;;5048741;28;20039;-59
2021/08/13 11:47:59;;;;;;;31.95;4.88;;;28.10;68.50;;;;;;5041544;28;20111;-60
2021/08/13 11:50:26;;;;;;;20.65;4.55;;;28.20;68.50;;;;;;5058710;28;20132;-60
2021/08/13 11:52:51;;;;;;;39.20;5.53;;;28.20;68.20;;;;;;5048090;28;20401;-59
2021/08/13 11:55:25;;;;;;;32.42;5.72;;;28.30;68.20;;;;;;5045985;28;20123;-59
2021/08/13 11:57:58;;;;;;;18.50;4.40;;;28.40;67.80;;;;;;5054873;28;20029;-60
2021/08/13 12:00:28;;;;;;;26.95;4.97;;;28.40;67.70;;;;;;5044672;28;20040;-60
2021/08/13 12:03:00;;;;;;;17.77;4.25;;;28.50;67.60;;;;;;5044164;28;20028;-61
2021/08/13 12:05:31;;;;;;;12.27;3.50;;;28.60;67.00;;;;;;5022761;28;20556;-59
2021/08/13 12:08:01;;;;;;;21.60;4.10;;;28.70;66.60;;;;;;5049959;28;20128;-59
2021/08/13 12:10:27;;;;;;;11.65;4.00;;;28.70;66.10;;;;;;5018122;28;20131;-59
2021/08/13 12:12:53;;;;;;;21.60;4.20;;;28.80;65.70;;;;;;5030322;28;20590;-59
2021/08/13 12:15:29;;;;;;;14.27;3.45;;;28.90;65.30;;;;;;5018141;28;20051;-59
2021/08/13 12:17:55;;;;;;;12.93;3.70;;;29.00;64.40;;;;;;5021513;28;20093;-59
2021/08/13 12:20:20;;;;;;;9.98;3.50;;;29.10;63.60;;;;;;5047074;28;21943;-59
2021/08/13 12:22:46;;;;;;;14.00;3.60;;;29.20;63.40;;;;;;5041045;28;20029;-59
2021/08/13 12:25:12;;;;;;;31.17;4.97;;;29.30;63.30;;;;;;5057996;28;20063;-59
2021/08/13 12:27:38;;;;;;;44.97;6.03;;;29.30;63.10;;;;;;5062550;28;20044;-59
2021/08/13 12:30:17;;;;;;;29.02;4.55;;;29.40;62.80;;;;;;5057639;28;20106;-59
2021/08/13 12:32:43;;;;;;;27.30;5.15;;;29.40;63.40;;;;;;5021975;28;20115;-59
2021/08/13 12:35:10;;;;;;;21.90;4.50;;;29.40;63.30;;;;;;5041101;28;20155;-59
2021/08/13 12:37:36;;;;;;;40.63;6.63;;;29.50;62.90;;;;;;5017446;28;20028;-59
2021/08/13 12:40:02;;;;;;;30.60;5.43;;;29.60;63.10;;;;;;5045993;28;20085;-59
2021/08/13 12:42:28;;;;;;;42.83;6.15;;;29.60;63.30;;;;;;5044249;28;20032;-59